Terminal Aerodrome Forecast
Issued by NWS Quad Cities IA IL

Home | Current Version | Previous Version | Text Only | Print | Product List | Glossary On
Versions: 1 2 3 4 5 6 7 8 9 10 11 12 13 14 15 16
197
FTUS43 KDVN 141720
TAFDBQ
TAF
KDBQ 141720Z 1418/1518 14015KT 1SM -SN BR OVC015
      TEMPO 1418/1420 1/2SM SN FZFG BKN009 OVC015
     FM142000 13010KT 3SM -SN BR BKN020 OVC040
     FM142200 13009KT 5SM -SN BR SCT025 OVC050
     FM150200 12005KT 6SM BR OVC009=

USA.gov is the U.S. government's official web portal to all federal, state and local government web resources and services.